Time;durP1;ratioP1;P1;durP2;ratioP2;P2;SDS_P1;SDS_P2;PMS_P1;PMS_P2;Temp;Humidity;BMP_temperature;BMP_pressure;BME280_temperature;BME280_humidity;BME280_pressure;Samples;Min_cycle;Max_cycle;Signal;HPM_P1;HPM_P2
2023/07/04 00:01:10;;;;;;;23.35;2.55;;;;;;;16.41;100.00;100777.44;6218645;23;20428;-73
2023/07/04 00:03:36;;;;;;;17.10;2.85;;;;;;;16.46;100.00;100777.84;6218875;23;20325;-72
2023/07/04 00:06:02;;;;;;;21.25;3.13;;;;;;;16.40;100.00;100777.59;6168886;23;20004;-73
2023/07/04 00:08:33;;;;;;;19.02;2.88;;;;;;;16.34;100.00;100774.44;6218550;23;20039;-74
2023/07/04 00:11:04;;;;;;;19.90;3.45;;;;;;;16.36;100.00;100777.03;6220018;23;20389;-75
2023/07/04 00:13:31;;;;;;;20.45;2.95;;;;;;;16.49;100.00;100779.38;6218471;23;20012;-72
2023/07/04 00:15:57;;;;;;;23.90;3.03;;;;;;;16.43;100.00;100783.69;6218715;23;20064;-72
2023/07/04 00:18:27;;;;;;;18.63;2.35;;;;;;;16.51;100.00;100774.56;6244983;23;20317;-72
2023/07/04 00:20:55;;;;;;;27.65;4.15;;;;;;;16.50;100.00;100762.66;6245320;23;20008;-73
2023/07/04 00:23:22;;;;;;;20.05;3.55;;;;;;;16.48;100.00;100775.78;6220482;23;20026;-72
2023/07/04 00:25:48;;;;;;;22.80;2.88;;;;;;;16.46;100.00;100768.66;6247432;23;20024;-71
2023/07/04 00:28:14;;;;;;;26.27;2.90;;;;;;;16.26;100.00;100757.81;6220554;23;20008;-72
2023/07/04 00:30:39;;;;;;;21.05;3.10;;;;;;;16.31;100.00;100765.63;6247001;23;20095;-72
2023/07/04 00:33:05;;;;;;;22.17;3.17;;;;;;;16.17;100.00;100761.56;6220836;23;20402;-72
2023/07/04 00:35:30;;;;;;;29.98;4.85;;;;;;;16.17;100.00;100769.84;6220529;23;20009;-73
2023/07/04 00:37:56;;;;;;;20.75;3.20;;;;;;;16.25;100.00;100769.00;6220795;23;20008;-73
2023/07/04 00:40:23;;;;;;;21.25;2.75;;;;;;;16.22;100.00;100767.47;6195609;23;20008;-72
2023/07/04 00:42:52;;;;;;;18.58;2.90;;;;;;;16.25;100.00;100769.91;6220507;23;20019;-73
2023/07/04 00:45:21;;;;;;;19.15;2.95;;;;;;;16.11;100.00;100773.22;6220785;23;20000;-72
2023/07/04 00:48:00;;;;;;;21.63;3.30;;;;;;;16.01;100.00;100770.56;6196783;23;20008;-72
2023/07/04 00:50:39;;;;;;;18.88;2.70;;;;;;;15.96;100.00;100770.16;6220401;23;20083;-73
2023/07/04 00:53:09;;;;;;;17.10;3.22;;;;;;;15.90;100.00;100766.13;6195804;23;20012;-72
2023/07/04 00:55:39;;;;;;;20.63;3.17;;;;;;;15.90;100.00;100776.31;6220491;23;20383;-72
2023/07/04 00:58:05;;;;;;;18.20;2.95;;;;;;;15.95;100.00;100782.22;6247416;23;20004;-72
2023/07/04 01:00:32;;;;;;;20.02;3.05;;;;;;;15.96;100.00;100773.78;6195372;23;20073;-77
2023/07/04 01:03:05;;;;;;;19.40;3.78;;;;;;;15.94;100.00;100766.72;6171369;23;20036;-77
2023/07/04 01:05:46;;;;;;;23.35;4.55;;;;;;;15.84;100.00;100771.44;6220865;23;20370;-77
2023/07/04 01:08:46;;;;;;;16.02;2.88;;;;;;;15.84;100.00;100779.72;6195510;23;20015;-77
2023/07/04 01:11:42;;;;;;;23.27;2.75;;;;;;;15.94;100.00;100777.75;6187644;23;20081;-77
2023/07/04 01:14:22;;;;;;;15.52;2.65;;;;;;;15.79;100.00;100778.31;6247920;23;20004;-77
2023/07/04 01:16:49;;;;;;;20.70;3.13;;;;;;;15.89;100.00;100769.06;6195386;23;20043;-77
2023/07/04 01:19:25;;;;;;;22.05;3.25;;;;;;;15.83;100.00;100776.09;6195493;23;20050;-76
2023/07/04 01:22:07;;;;;;;18.90;3.30;;;;;;;15.83;100.00;100778.84;6220808;23;20466;-77
2023/07/04 01:24:44;;;;;;;29.92;4.30;;;;;;;15.84;100.00;100775.06;6195626;23;20004;-77
2023/07/04 01:27:10;;;;;;;22.02;3.13;;;;;;;15.80;100.00;100774.50;6195497;23;20019;-77
2023/07/04 01:29:36;;;;;;;19.02;4.15;;;;;;;15.84;100.00;100774.19;6221035;23;20408;-78
2023/07/04 01:32:03;;;;;;;20.27;3.08;;;;;;;15.89;100.00;100778.22;6195921;23;20008;-78
2023/07/04 01:34:29;;;;;;;29.45;3.90;;;;;;;15.84;100.00;100779.72;6220566;23;20016;-78
2023/07/04 01:36:54;;;;;;;21.40;4.45;;;;;;;15.72;100.00;100770.78;6146546;23;20462;-77
2023/07/04 01:39:21;;;;;;;26.27;3.25;;;;;;;15.67;100.00;100765.72;6196405;23;20062;-77
2023/07/04 01:41:47;;;;;;;15.70;2.72;;;;;;;15.71;100.00;100780.94;6221562;23;20073;-77
2023/07/04 01:44:16;;;;;;;24.88;3.33;;;;;;;15.75;100.00;100779.59;6195716;23;20019;-77
2023/07/04 01:46:41;;;;;;;21.65;3.65;;;;;;;15.83;100.00;100783.50;6220510;23;20000;-77
2023/07/04 01:49:10;;;;;;;16.92;3.38;;;;;;;15.74;100.00;100788.03;6196564;23;20020;-77
2023/07/04 01:51:39;;;;;;;22.92;3.90;;;;;;;15.68;100.00;100781.25;6220145;23;20019;-78
2023/07/04 01:54:06;;;;;;;23.88;3.50;;;;;;;15.63;100.00;100784.47;6247250;23;20149;-78
2023/07/04 01:56:34;;;;;;;20.77;3.53;;;;;;;15.62;100.00;100787.41;6195275;23;20019;-77
2023/07/04 01:59:00;;;;;;;23.30;4.15;;;;;;;15.59;100.00;100782.19;6196005;23;20022;-77
2023/07/04 02:01:25;;;;;;;29.65;5.85;;;;;;;15.51;100.00;100785.75;6220527;23;20398;-77
2023/07/04 02:03:51;;;;;;;16.90;3.25;;;;;;;15.49;100.00;100779.50;6196008;23;20019;-77
2023/07/04 02:06:17;;;;;;;17.65;2.95;;;;;;;15.62;100.00;100776.34;6195444;23;20098;-77
2023/07/04 02:08:43;;;;;;;20.52;3.13;;;;;;;15.60;100.00;100767.38;6247135;23;20012;-77
2023/07/04 02:11:08;;;;;;;29.80;4.40;;;;;;;15.47;100.00;100773.28;6220243;23;20004;-77
2023/07/04 02:13:34;;;;;;;20.73;4.18;;;;;;;15.52;100.00;100775.56;6220326;23;20020;-77
2023/07/04 02:16:02;;;;;;;19.90;4.07;;;;;;;15.48;100.00;100768.59;6220207;23;20016;-77
2023/07/04 02:18:28;;;;;;;30.27;3.88;;;;;;;15.51;100.00;100776.59;6220446;23;20039;-77
2023/07/04 02:20:53;;;;;;;24.73;3.92;;;;;;;15.47;100.00;100772.41;6195423;23;20387;-77
2023/07/04 02:23:19;;;;;;;26.60;3.55;;;;;;;15.50;100.00;100772.97;6194956;23;20019;-77
2023/07/04 02:25:44;;;;;;;39.95;4.72;;;;;;;15.48;100.00;100768.59;6220148;23;20066;-77
2023/07/04 02:28:11;;;;;;;24.10;3.88;;;;;;;15.63;100.00;100770.69;6246518;23;20075;-77
2023/07/04 02:30:37;;;;;;;36.38;3.60;;;;;;;15.55;100.00;100773.38;6219675;23;20115;-77
2023/07/04 02:33:03;;;;;;;22.25;3.67;;;;;;;15.62;100.00;100776.34;6194812;23;20012;-77
2023/07/04 02:35:30;;;;;;;21.40;3.03;;;;;;;15.46;100.00;100768.75;6170198;23;20015;-77
2023/07/04 02:37:56;;;;;;;21.60;3.28;;;;;;;15.54;100.00;100768.00;6170039;23;20012;-78
2023/07/04 02:40:22;;;;;;;29.52;3.60;;;;;;;15.54;100.00;100773.50;6220034;23;20062;-78
2023/07/04 02:42:48;;;;;;;16.52;3.35;;;;;;;15.54;100.00;100768.00;6195334;23;20008;-77
2023/07/04 02:45:13;;;;;;;26.70;3.72;;;;;;;15.46;100.00;100774.28;6194416;23;20170;-77
2023/07/04 02:47:39;;;;;;;26.50;3.67;;;;;;;15.44;100.00;100777.19;6169655;23;20111;-77
2023/07/04 02:50:05;;;;;;;32.38;4.80;;;;;;;15.43;100.00;100772.72;6246331;23;20008;-77
2023/07/04 02:52:30;;;;;;;21.63;3.80;;;;;;;15.36;100.00;100759.69;6194699;23;20044;-77
2023/07/04 02:54:56;;;;;;;29.52;3.70;;;;;;;15.33;100.00;100765.50;6219497;23;20013;-77
2023/07/04 02:57:22;;;;;;;26.23;3.20;;;;;;;15.43;100.00;100761.69;6246346;23;20386;-77
2023/07/04 02:59:48;;;;;;;22.85;4.10;;;;;;;15.38;100.00;100768.66;6169510;23;20016;-77
2023/07/04 03:02:13;;;;;;;23.30;3.13;;;;;;;15.31;100.00;100762.06;6194700;23;20100;-77
2023/07/04 03:04:38;;;;;;;23.88;3.60;;;;;;;15.27;100.00;100750.47;6194905;23;20215;-77
2023/07/04 03:07:04;;;;;;;27.27;3.45;;;;;;;15.23;100.00;100762.81;6194956;23;20012;-77
2023/07/04 03:09:30;;;;;;;22.35;3.80;;;;;;;15.27;100.00;100757.88;6219920;23;20077;-77
2023/07/04 03:11:56;;;;;;;20.48;3.83;;;;;;;15.18;100.00;100762.41;6219383;23;20012;-77
2023/07/04 03:14:21;;;;;;;26.33;3.78;;;;;;;15.19;100.00;100762.25;6194612;23;20012;-77
2023/07/04 03:16:47;;;;;;;24.10;3.00;;;;;;;15.03;100.00;100757.41;6194652;23;20099;-78
2023/07/04 03:19:13;;;;;;;28.20;4.50;;;;;;;15.00;100.00;100768.78;6169791;23;20074;-77
2023/07/04 03:21:38;;;;;;;21.23;3.03;;;;;;;15.07;100.00;100772.63;6194522;23;20008;-78
2023/07/04 03:24:04;;;;;;;24.13;4.28;;;;;;;15.01;100.00;100772.38;6246495;23;20066;-77
2023/07/04 03:26:29;;;;;;;23.90;5.82;;;;;;;15.04;100.00;100772.94;6169792;23;20020;-78
2023/07/04 03:28:54;;;;;;;23.27;4.43;;;;;;;15.07;100.00;100771.78;6194021;23;20015;-78
2023/07/04 03:31:20;;;;;;;25.45;4.63;;;;;;;15.27;100.00;100779.94;6170156;23;20047;-78
2023/07/04 03:33:45;;;;;;;28.95;4.47;;;;;;;15.31;100.00;100787.75;6169701;23;20015;-78
2023/07/04 03:36:11;;;;;;;16.52;3.55;;;;;;;15.35;100.00;100791.09;6194662;23;20384;-78
2023/07/04 03:38:36;;;;;;;19.80;3.63;;;;;;;15.37;100.00;100798.16;6145660;23;20199;-77
2023/07/04 03:41:02;;;;;;;15.93;2.78;;;;;;;15.41;100.00;100796.84;6220185;23;20443;-77
2023/07/04 03:43:27;;;;;;;17.05;3.92;;;;;;;15.33;100.00;100798.63;6219353;23;20012;-78
2023/07/04 03:45:53;;;;;;;18.55;3.42;;;;;;;15.34;100.00;100795.72;6219196;23;20004;-77
2023/07/04 03:48:19;;;;;;;23.00;3.45;;;;;;;15.39;100.00;100795.25;6219316;23;20012;-77
2023/07/04 03:50:45;;;;;;;19.63;2.88;;;;;;;15.26;100.00;100801.13;6194928;23;20126;-77
2023/07/04 03:53:10;;;;;;;21.33;3.40;;;;;;;15.11;100.00;100797.16;6245925;23;20036;-78
2023/07/04 03:55:36;;;;;;;30.95;3.70;;;;;;;15.18;100.00;100799.16;6169184;23;20091;-78
2023/07/04 03:58:02;;;;;;;20.10;4.32;;;;;;;15.30;100.00;100821.00;6219138;23;20379;-77
2023/07/04 04:00:28;;;;;;;25.35;3.45;;;;;;;15.24;100.00;100815.06;6219659;23;20012;-77
2023/07/04 04:02:53;;;;;;;19.75;2.95;;;;;;;15.08;100.00;100820.38;6194087;23;20057;-78
2023/07/04 04:05:19;;;;;;;19.27;3.50;;;;;;;15.17;100.00;100815.84;6218837;23;20233;-77
2023/07/04 04:07:48;;;;;;;18.02;3.28;;;;;;;15.11;100.00;100817.31;6169586;23;20023;-78
2023/07/04 04:10:15;;;;;;;19.70;4.50;;;;;;;14.95;100.00;100819.84;6170244;23;20410;-77
2023/07/04 04:12:40;;;;;;;32.17;5.20;;;;;;;15.02;100.00;100818.22;6219623;23;20344;-77
2023/07/04 04:15:07;;;;;;;30.27;3.92;;;;;;;14.96;100.00;100818.84;6219343;23;20020;-77
2023/07/04 04:17:32;;;;;;;20.38;4.07;;;;;;;14.87;100.00;100813.22;6193951;23;20008;-77
2023/07/04 04:19:58;;;;;;;29.15;3.97;;;;;;;14.97;100.00;100815.06;6169445;23;20510;-77
2023/07/04 04:22:23;;;;;;;26.75;4.63;;;;;;;14.93;100.00;100816.38;6218772;23;20099;-77
2023/07/04 04:24:48;;;;;;;28.58;3.80;;;;;;;14.95;100.00;100823.47;6169360;23;20020;-77
2023/07/04 04:27:15;;;;;;;27.17;4.30;;;;;;;14.91;100.00;100816.53;6169279;23;20012;-77
2023/07/04 04:29:41;;;;;;;27.55;5.25;;;;;;;14.93;100.00;100810.88;6144866;23;20019;-77
2023/07/04 04:32:07;;;;;;;28.52;4.72;;;;;;;14.81;100.00;100807.44;6194405;23;20020;-77
2023/07/04 04:34:32;;;;;;;24.90;4.85;;;;;;;14.78;100.00;100821.53;6169352;23;20016;-77
2023/07/04 04:36:58;;;;;;;37.03;5.88;;;;;;;14.81;100.00;100824.84;6194168;23;20042;-77
2023/07/04 04:39:26;;;;;;;29.58;4.30;;;;;;;14.87;100.00;100826.13;6218921;23;20066;-77
2023/07/04 04:41:52;;;;;;;36.42;5.40;;;;;;;14.93;100.00;100828.28;6219016;23;20039;-77
2023/07/04 04:44:18;;;;;;;28.05;5.22;;;;;;;15.11;100.00;100827.50;6195210;23;20034;-77
2023/07/04 04:46:48;;;;;;;24.55;3.97;;;;;;;15.21;100.00;100823.66;6247018;23;20430;-78
2023/07/04 04:49:14;;;;;;;28.08;5.07;;;;;;;15.18;100.00;100832.25;6218749;23;20117;-78
2023/07/04 04:51:40;;;;;;;30.30;4.10;;;;;;;15.17;100.00;100819.47;6219214;23;20344;-78
2023/07/04 04:54:06;;;;;;;29.52;3.67;;;;;;;15.16;100.00;100826.00;6169163;23;20008;-78
2023/07/04 04:56:33;;;;;;;31.50;4.82;;;;;;;15.14;100.00;100829.94;6218696;23;20008;-77
2023/07/04 04:59:01;;;;;;;30.95;4.35;;;;;;;15.18;100.00;100837.78;6194417;23;20329;-78
2023/07/04 05:01:27;;;;;;;31.58;6.35;;;;;;;15.22;100.00;100827.31;6194435;23;20083;-78
2023/07/04 05:03:55;;;;;;;26.80;4.82;;;;;;;15.18;100.00;100835.00;6193894;23;20046;-78
2023/07/04 05:06:23;;;;;;;29.23;5.20;;;;;;;15.16;100.00;100842.56;6219046;23;20008;-78
2023/07/04 05:08:49;;;;;;;27.02;4.35;;;;;;;15.22;100.00;100838.34;6194785;23;20004;-78
2023/07/04 05:11:19;;;;;;;20.85;4.10;;;;;;;15.27;100.00;100837.88;6221339;23;20031;-78
2023/07/04 05:13:45;;;;;;;31.42;4.68;;;;;;;15.21;100.00;100836.59;6195162;23;20008;-78
2023/07/04 05:16:15;;;;;;;29.45;4.10;;;;;;;15.30;100.00;100827.41;6195495;23;20527;-77
2023/07/04 05:18:44;;;;;;;21.70;3.75;;;;;;;15.29;100.00;100836.69;6220741;23;20424;-78
2023/07/04 05:21:13;;;;;;;32.45;4.43;;;;;;;15.47;100.00;100842.25;6220538;23;20016;-78
2023/07/04 05:23:41;;;;;;;29.67;4.60;;;;;;;15.56;100.00;100848.72;6220390;23;20015;-79
2023/07/04 05:26:12;;;;;;;23.00;4.78;;;;;;;15.84;100.00;100852.38;6220420;23;20023;-78
2023/07/04 05:28:39;;;;;;;28.23;4.05;;;;;;;15.84;100.00;100843.22;6248036;23;20008;-78
2023/07/04 05:31:10;;;;;;;28.08;4.55;;;;;;;16.08;100.00;100853.66;6195987;23;20012;-78
2023/07/04 05:36:23;;;;;;;30.08;3.83;;;;;;;16.30;100.00;100844.88;6246915;23;20347;-78
2023/07/04 05:38:50;;;;;;;23.73;3.65;;;;;;;16.18;100.00;100846.16;6195469;23;20008;-78
2023/07/04 05:41:18;;;;;;;16.40;4.22;;;;;;;16.24;100.00;100848.28;6219958;23;20012;-78
2023/07/04 05:43:44;;;;;;;27.58;4.13;;;;;;;16.32;100.00;100847.50;6220465;23;20034;-78
2023/07/04 05:46:14;;;;;;;25.10;5.00;;;;;;;16.23;100.00;100846.53;6220733;23;20062;-78
2023/07/04 05:48:40;;;;;;;29.42;5.53;;;;;;;16.54;100.00;100852.53;6196538;23;20008;-78
2023/07/04 05:51:12;;;;;;;26.45;3.85;;;;;;;16.98;100.00;100851.63;6220566;23;20396;-78
2023/07/04 05:53:40;;;;;;;28.92;6.00;;;;;;;16.77;100.00;100859.41;6195510;23;20428;-78
2023/07/04 05:56:09;;;;;;;28.35;4.43;;;;;;;16.79;100.00;100858.22;6220453;23;20019;-78
2023/07/04 05:58:39;;;;;;;30.83;4.53;;;;;;;17.02;100.00;100860.47;6220268;23;20050;-78
2023/07/04 06:01:12;;;;;;;23.52;3.97;;;;;;;17.09;100.00;100853.25;6195276;23;20011;-79
2023/07/04 06:03:39;;;;;;;28.55;4.15;;;;;;;17.39;100.00;100865.69;6194893;23;20008;-78
2023/07/04 06:06:06;;;;;;;28.30;3.65;;;;;;;17.85;100.00;100854.25;6220157;23;20010;-78
2023/07/04 06:08:33;;;;;;;29.10;3.80;;;;;;;17.61;100.00;100849.50;6194785;23;20011;-78
2023/07/04 06:11:05;;;;;;;29.48;4.50;;;;;;;17.61;100.00;100843.97;6220275;23;20015;-78
2023/07/04 06:13:31;;;;;;;24.67;4.85;;;;;;;17.35;100.00;100866.16;6219868;23;20051;-78
2023/07/04 06:15:59;;;;;;;27.85;4.22;;;;;;;17.69;100.00;100860.59;6219759;23;20012;-78
2023/07/04 06:18:25;;;;;;;27.10;5.82;;;;;;;18.09;100.00;100861.78;6246613;23;20012;-78
2023/07/04 06:20:51;;;;;;;33.28;4.13;;;;;;;18.67;100.00;100864.59;6219383;23;20458;-78
2023/07/04 06:23:19;;;;;;;25.65;3.65;;;;;;;18.00;100.00;100869.22;6219624;23;20018;-79
2023/07/04 06:25:44;;;;;;;27.67;3.78;;;;;;;18.30;100.00;100864.06;6219157;23;20019;-77
2023/07/04 06:28:10;;;;;;;18.10;3.47;;;;;;;17.96;100.00;100875.28;6195098;23;20012;-78
2023/07/04 06:30:38;;;;;;;25.38;4.22;;;;;;;17.75;100.00;100870.16;6169510;23;20008;-79
2023/07/04 06:33:04;;;;;;;27.27;4.00;;;;;;;18.46;100.00;100870.66;6194104;23;20012;-77
2023/07/04 06:35:33;;;;;;;20.65;3.47;;;;;;;18.58;100.00;100885.03;6193964;23;20058;-78
2023/07/04 06:38:00;;;;;;;28.95;4.63;;;;;;;17.82;100.00;100882.28;6196046;23;20455;-78
2023/07/04 06:40:26;;;;;;;23.25;3.53;;;;;;;18.07;100.00;100886.03;6169365;23;20008;-78
2023/07/04 06:42:51;;;;;;;25.27;3.60;;;;;;;18.39;100.00;100889.03;6246650;23;20440;-77
2023/07/04 06:45:17;;;;;;;24.35;3.83;;;;;;;19.20;100.00;100878.91;6194811;23;20004;-78
2023/07/04 06:47:42;;;;;;;26.67;3.90;;;;;;;19.18;100.00;100883.78;6169929;23;20040;-78
2023/07/04 06:50:08;;;;;;;22.67;4.07;;;;;;;19.75;100.00;100885.50;6219700;23;20019;-78
2023/07/04 06:52:34;;;;;;;20.48;3.60;;;;;;;19.23;100.00;100893.31;6219620;23;20321;-78
2023/07/04 06:54:59;;;;;;;31.10;3.88;;;;;;;18.98;100.00;100902.75;6194379;23;20091;-78
2023/07/04 06:57:25;;;;;;;19.40;3.53;;;;;;;18.92;100.00;100907.06;6194289;23;20012;-78
2023/07/04 06:59:51;;;;;;;25.75;3.20;;;;;;;18.89;100.00;100913.00;6219343;23;20023;-78
2023/07/04 07:02:16;;;;;;;23.17;3.97;;;;;;;18.54;100.00;100903.94;6219560;23;20016;-78
2023/07/04 07:04:42;;;;;;;23.02;4.00;;;;;;;19.16;100.00;100903.38;6194376;23;20008;-78
2023/07/04 07:07:11;;;;;;;29.45;4.78;;;;;;;19.35;100.00;100916.03;6219314;23;20103;-78
2023/07/04 07:09:40;;;;;;;22.55;3.47;;;;;;;19.30;100.00;100921.25;6219274;23;20101;-78
2023/07/04 07:12:06;;;;;;;22.60;3.35;;;;;;;18.97;100.00;100914.88;6194058;23;20091;-78
2023/07/04 07:14:32;;;;;;;28.05;2.95;;;;;;;19.76;99.50;100917.84;6219471;23;20018;-78
2023/07/04 07:16:57;;;;;;;24.13;3.65;;;;;;;19.49;94.97;100924.66;6219023;23;20012;-78
2023/07/04 07:19:24;;;;;;;13.13;2.78;;;;;;;19.28;96.88;100913.09;6194294;23;20016;-78
2023/07/04 07:21:49;;;;;;;17.98;2.78;;;;;;;19.40;98.56;100921.91;6246202;23;20038;-78
2023/07/04 07:24:15;;;;;;;19.73;3.22;;;;;;;20.14;95.17;100917.97;6194350;23;20436;-78
2023/07/04 07:26:41;;;;;;;21.23;2.95;;;;;;;20.62;93.32;100924.22;6219153;23;20030;-78
2023/07/04 07:29:07;;;;;;;14.20;3.33;;;;;;;20.87;86.62;100924.06;6218975;23;20012;-78
2023/07/04 07:31:32;;;;;;;19.20;3.33;;;;;;;21.21;84.63;100923.56;6194102;23;20057;-78
2023/07/04 07:33:58;;;;;;;17.42;2.83;;;;;;;20.96;85.34;100922.09;6219351;23;20024;-78
2023/07/04 07:36:23;;;;;;;15.32;2.58;;;;;;;20.68;82.60;100928.25;6194433;23;20038;-78
2023/07/04 07:38:50;;;;;;;15.30;2.67;;;;;;;19.96;83.78;100919.09;6219193;23;20058;-78
2023/07/04 07:41:17;;;;;;;18.23;2.53;;;;;;;20.69;76.63;100919.72;6246114;23;20486;-78
2023/07/04 07:43:43;;;;;;;12.57;2.10;;;;;;;20.38;77.30;100933.63;6219410;23;20008;-78
2023/07/04 07:46:10;;;;;;;20.13;2.90;;;;;;;19.85;80.06;100941.72;6219234;23;20000;-78
2023/07/04 07:48:36;;;;;;;18.90;2.10;;;;;;;20.38;80.14;100930.84;6219550;23;20019;-79
2023/07/04 07:51:02;;;;;;;13.90;2.53;;;;;;;21.63;71.86;100933.22;6193771;23;20016;-78
2023/07/04 07:53:27;;;;;;;14.25;2.20;;;;;;;20.38;73.15;100936.41;6219359;23;20040;-78
2023/07/04 07:55:53;;;;;;;14.85;1.70;;;;;;;21.03;71.25;100937.81;6218926;23;20023;-78
2023/07/04 07:58:18;;;;;;;12.07;2.55;;;;;;;21.27;68.12;100925.59;6219304;23;20050;-78
2023/07/04 08:00:44;;;;;;;10.52;1.90;;;;;;;20.80;69.12;100937.00;6169135;23;20012;-77
2023/07/04 08:03:09;;;;;;;17.45;2.30;;;;;;;21.69;67.10;100931.56;6169064;23;20043;-78
2023/07/04 08:05:45;;;;;;;16.15;2.30;;;;;;;21.47;65.92;100925.91;6218874;23;20032;-78
2023/07/04 08:08:12;;;;;;;10.68;1.90;;;;;;;21.77;64.86;100933.41;6218750;23;20435;-78
2023/07/04 08:10:39;;;;;;;10.35;2.30;;;;;;;20.99;66.36;100932.81;6246283;23;20036;-78
2023/07/04 08:13:05;;;;;;;11.13;2.05;;;;;;;20.85;69.57;100932.59;6193407;23;20016;-77
2023/07/04 08:15:31;;;;;;;18.23;2.60;;;;;;;20.92;67.69;100932.72;6219056;23;20091;-78
2023/07/04 08:17:56;;;;;;;12.65;2.10;;;;;;;21.22;65.89;100938.38;6218765;23;20066;-77
2023/07/04 08:20:23;;;;;;;8.95;1.70;;;;;;;21.43;60.59;100944.06;6218822;23;20012;-77
2023/07/04 08:22:48;;;;;;;19.63;2.10;;;;;;;21.73;60.02;100948.81;6245485;23;20020;-77
2023/07/04 08:25:14;;;;;;;9.90;2.55;;;;;;;21.22;60.37;100949.50;6168931;23;20506;-77
2023/07/04 08:27:40;;;;;;;18.85;2.53;;;;;;;20.97;61.04;100952.50;6220516;23;20142;-78
2023/07/04 08:30:06;;;;;;;10.98;1.80;;;;;;;21.79;58.96;100950.78;6219929;23;20012;-78
2023/07/04 08:32:33;;;;;;;12.48;2.47;;;;;;;21.52;61.67;100957.94;6220423;23;20016;-78
2023/07/04 08:34:59;;;;;;;9.20;2.03;;;;;;;22.00;62.39;100953.66;6198684;23;20012;-78
2023/07/04 08:37:25;;;;;;;10.48;2.22;;;;;;;22.54;57.96;100954.34;6223475;23;20387;-78
2023/07/04 08:39:50;;;;;;;16.52;2.70;;;;;;;22.61;57.86;100946.88;6218977;23;20036;-77
2023/07/04 08:42:18;;;;;;;12.43;2.55;;;;;;;22.06;59.38;100956.75;6218758;23;20035;-78
2023/07/04 08:44:46;;;;;;;8.40;2.30;;;;;;;21.48;58.67;100957.44;6220121;23;20004;-78
2023/07/04 08:47:15;;;;;;;10.75;2.40;;;;;;;21.33;59.90;100951.81;6247840;23;20008;-77
2023/07/04 08:49:53;;;;;;;13.10;2.53;;;;;;;21.52;58.34;100958.78;6220692;23;20004;-77
2023/07/04 08:52:37;;;;;;;11.98;2.10;;;;;;;22.13;56.47;100944.59;6247413;23;20011;-77
2023/07/04 08:55:07;;;;;;;12.75;2.47;;;;;;;22.03;55.51;100932.91;6247688;23;20062;-77
2023/07/04 08:57:42;;;;;;;8.60;1.58;;;;;;;22.57;53.64;100926.03;6221606;23;20427;-78
2023/07/04 09:00:16;;;;;;;9.63;2.10;;;;;;;22.56;53.30;100933.56;6195565;23;20004;-78
2023/07/04 09:02:56;;;;;;;15.18;2.65;;;;;;;21.55;55.65;100929.69;6195347;23;20004;-78
2023/07/04 09:05:54;;;;;;;19.08;2.55;;;;;;;21.93;55.98;100943.50;6220588;23;20004;-78
2023/07/04 09:08:23;;;;;;;16.73;2.67;;;;;;;21.85;56.26;100938.88;6189049;23;20027;-78
2023/07/04 09:10:53;;;;;;;10.95;2.35;;;;;;;23.73;52.52;100950.84;6195448;23;20012;-77
2023/07/04 09:13:36;;;;;;;16.58;2.50;;;;;;;23.01;51.40;100949.22;6247573;23;20008;-76
2023/07/04 09:16:06;;;;;;;11.68;1.88;;;;;;;22.35;52.14;100939.97;6194577;23;20036;-78
2023/07/04 09:18:49;;;;;;;11.43;1.92;;;;;;;23.19;52.66;100946.81;6220466;23;20008;-78
2023/07/04 09:21:22;;;;;;;9.05;1.90;;;;;;;23.78;51.52;100939.91;6195538;23;20066;-78
2023/07/04 09:23:50;;;;;;;10.02;2.13;;;;;;;23.02;50.33;100957.41;6220316;23;20458;-78
2023/07/04 09:26:19;;;;;;;9.52;1.95;;;;;;;23.59;47.04;100961.06;6169344;23;20037;-78
2023/07/04 09:28:48;;;;;;;11.05;1.90;;;;;;;23.41;46.30;100958.78;6185347;23;20376;-78
2023/07/04 09:31:20;;;;;;;11.07;2.17;;;;;;;23.24;48.07;100963.84;6185302;23;20050;-77
2023/07/04 09:33:48;;;;;;;9.45;2.45;;;;;;;23.81;49.90;100952.63;6185083;23;20425;-77
2023/07/04 09:36:15;;;;;;;12.30;2.22;;;;;;;24.14;50.14;100960.34;6186592;23;20009;-78
2023/07/04 09:38:54;;;;;;;9.18;1.90;;;;;;;23.89;50.52;100960.88;6186494;23;20005;-79
2023/07/04 09:41:25;;;;;;;11.55;2.50;;;;;;;22.91;53.29;100966.31;6185397;23;20013;-79
2023/07/04 09:43:51;;;;;;;13.27;2.53;;;;;;;23.45;52.61;100964.88;6187013;23;20009;-79
2023/07/04 09:46:17;;;;;;;17.08;2.58;;;;;;;24.18;52.41;100968.09;6186637;23;20116;-76
2023/07/04 09:48:42;;;;;;;20.70;2.78;;;;;;;23.45;52.04;100960.13;6185016;23;20040;-77
2023/07/04 09:51:25;;;;;;;10.73;2.17;;;;;;;23.10;50.08;100971.25;6186836;23;20021;-78
2023/07/04 09:54:09;;;;;;;10.80;2.03;;;;;;;23.53;48.32;100975.88;6186522;23;20017;-78
2023/07/04 09:56:36;;;;;;;14.60;2.47;;;;;;;23.36;50.77;100974.47;6160134;23;20013;-78
2023/07/04 09:59:18;;;;;;;11.07;1.95;;;;;;;23.26;50.68;100980.41;6185238;23;20016;-78
2023/07/04 10:01:47;;;;;;;11.88;1.88;;;;;;;23.38;50.08;100981.59;6186627;23;20333;-78
2023/07/04 10:04:22;;;;;;;9.50;1.83;;;;;;;23.42;49.12;100979.25;6184767;23;20773;-78
2023/07/04 10:06:50;;;;;;;9.90;2.10;;;;;;;23.64;50.93;100988.41;6186325;23;20126;-78
2023/07/04 10:09:20;;;;;;;10.70;2.22;;;;;;;22.78;51.14;100994.97;6186636;23;20016;-77
2023/07/04 10:11:51;;;;;;;11.30;1.83;;;;;;;23.56;51.88;100980.19;6209807;23;20015;-78
2023/07/04 10:14:35;;;;;;;9.23;1.70;;;;;;;23.57;49.85;100988.38;6185304;23;20013;-78
2023/07/04 10:17:10;;;;;;;11.63;2.53;;;;;;;23.52;51.86;100993.72;6184983;23;20013;-78
2023/07/04 10:19:41;;;;;;;10.40;1.92;;;;;;;23.15;52.70;100983.72;6186487;23;20008;-78
2023/07/04 10:22:07;;;;;;;12.73;3.03;;;;;;;23.75;51.35;100979.47;6185018;23;20032;-79
2023/07/04 10:24:34;;;;;;;13.30;1.98;;;;;;;24.09;50.73;100976.84;6159908;23;20013;-79
2023/07/04 10:27:06;;;;;;;8.65;1.95;;;;;;;23.77;49.21;100974.50;6187526;23;20433;-78
2023/07/04 10:29:41;;;;;;;9.98;1.95;;;;;;;23.27;50.06;100977.41;6186099;23;20025;-79
2023/07/04 10:32:12;;;;;;;11.68;2.60;;;;;;;23.92;51.57;100982.81;6184812;23;20043;-79
2023/07/04 10:34:39;;;;;;;11.43;1.75;;;;;;;23.53;49.35;100967.50;6185002;23;20421;-78
2023/07/04 10:37:06;;;;;;;16.30;1.92;;;;;;;24.16;48.74;100973.03;6184665;23;20013;-78
2023/07/04 10:39:37;;;;;;;10.35;2.10;;;;;;;24.24;48.34;100973.94;6185004;23;20020;-78
2023/07/04 10:42:15;;;;;;;11.35;2.50;;;;;;;24.08;48.47;100976.00;6184451;23;20004;-79
2023/07/04 10:44:43;;;;;;;10.02;1.80;;;;;;;23.87;48.91;100973.31;6184626;23;20009;-79
2023/07/04 10:47:17;;;;;;;9.98;1.85;;;;;;;23.76;48.81;100969.13;6160455;23;20433;-79
2023/07/04 10:49:50;;;;;;;14.85;2.42;;;;;;;23.64;48.95;100972.50;6184784;23;20005;-79
2023/07/04 10:52:21;;;;;;;10.73;1.83;;;;;;;23.75;48.81;100982.25;6184717;23;20005;-79
2023/07/04 10:54:46;;;;;;;10.43;1.90;;;;;;;23.61;49.89;100978.53;6160319;23;20009;-78
2023/07/04 10:57:29;;;;;;;13.07;2.00;;;;;;;23.85;50.87;100968.78;6184596;23;20398;-78
2023/07/04 11:00:03;;;;;;;10.68;1.88;;;;;;;24.81;48.32;100982.94;6186082;23;20061;-78
2023/07/04 11:02:37;;;;;;;11.70;2.70;;;;;;;23.64;49.03;100975.28;6209888;23;20009;-77
2023/07/04 11:05:12;;;;;;;9.10;1.83;;;;;;;23.21;49.85;100989.38;6210096;23;20040;-78
2023/07/04 11:07:41;;;;;;;16.55;2.58;;;;;;;22.82;51.58;100989.84;6186027;23;20037;-78
2023/07/04 11:10:09;;;;;;;8.07;1.95;;;;;;;23.00;50.84;100978.19;6159870;23;20004;-78
2023/07/04 11:12:37;;;;;;;10.57;2.08;;;;;;;22.63;51.16;100978.28;6185758;23;20009;-78
2023/07/04 11:15:19;;;;;;;10.77;2.20;;;;;;;22.75;51.43;100984.19;6161819;23;20009;-78
2023/07/04 11:17:46;;;;;;;10.43;2.03;;;;;;;23.70;49.57;100983.94;6191114;23;20005;-78
2023/07/04 11:20:20;;;;;;;9.18;1.80;;;;;;;23.56;49.04;100978.25;6185499;23;20013;-78